Time;durP1;ratioP1;P1;durP2;ratioP2;P2;SDS_P1;SDS_P2;PMS_P1;PMS_P2;Temp;Humidity;BMP_temperature;BMP_pressure;BME280_temperature;BME280_humidity;BME280_pressure;Samples;Min_cycle;Max_cycle;Signal;HPM_P1;HPM_P2
2022/11/26 00:01:36;;;;;;;11.37;6.50;;;;;;;11.13;61.91;99706.25;7008562;28;20323;-82
2022/11/26 00:04:59;;;;;;;8.47;5.63;;;;;;;11.24;62.29;99708.50;7008867;28;20233;-83
2022/11/26 00:08:22;;;;;;;13.93;6.10;;;;;;;11.14;61.98;99708.78;7012346;28;20259;-82
2022/11/26 00:11:44;;;;;;;14.57;6.70;;;;;;;11.13;62.24;99693.63;7012807;28;20214;-83
2022/11/26 00:15:16;;;;;;;14.17;7.40;;;;;;;11.43;62.10;99727.66;7011748;28;20276;-83
2022/11/26 00:18:37;;;;;;;24.13;9.80;;;;;;;11.43;62.16;99706.06;7012964;28;20245;-82
2022/11/26 00:21:59;;;;;;;13.60;7.13;;;;;;;11.28;61.75;99717.91;7013893;28;20274;-83
2022/11/26 00:25:22;;;;;;;10.97;6.97;;;;;;;11.41;61.94;99742.38;7012083;28;20225;-82
2022/11/26 00:28:52;;;;;;;13.43;7.10;;;;;;;11.41;61.43;99724.31;7011726;28;20225;-85
2022/11/26 00:32:17;;;;;;;16.27;7.77;;;;;;;11.08;62.67;99743.75;7012442;28;20193;-83
2022/11/26 00:35:38;;;;;;;11.97;6.70;;;;;;;11.45;61.54;99740.97;7009925;28;20315;-83
2022/11/26 00:39:02;;;;;;;13.17;7.80;;;;;;;11.58;61.43;99750.09;7011335;28;20318;-83
2022/11/26 00:42:51;;;;;;;13.63;6.47;;;;;;;11.17;62.29;99729.16;7011871;28;20208;-83
2022/11/26 00:46:14;;;;;;;15.97;7.17;;;;;;;10.73;63.24;99701.31;7010611;28;20233;-83
2022/11/26 00:49:37;;;;;;;11.03;6.80;;;;;;;10.82;62.91;99721.78;7011164;28;20204;-83
2022/11/26 00:52:59;;;;;;;9.90;6.77;;;;;;;11.02;62.84;99752.59;7013479;28;20258;-83
2022/11/26 00:56:22;;;;;;;18.13;6.80;;;;;;;9.94;65.21;99696.44;7013949;28;20298;-83
2022/11/26 01:00:31;;;;;;;13.23;6.27;;;;;;;10.93;64.22;99770.72;7014317;28;20222;-83
2022/11/26 01:17:02;;;;;;;13.73;6.63;;;;;;;11.27;62.92;99786.41;6987725;28;20229;-83
2022/11/26 01:20:26;;;;;;;10.13;6.63;;;;;;;11.24;63.17;99794.88;7013297;28;20210;-84
2022/11/26 01:23:49;;;;;;;13.27;6.40;;;;;;;11.17;63.45;99810.16;7015873;28;20793;-83
2022/11/26 01:27:12;;;;;;;14.13;6.87;;;;;;;11.09;63.36;99780.56;7013841;28;20229;-84
2022/11/26 01:30:36;;;;;;;16.43;7.90;;;;;;;11.29;63.42;99806.81;7015163;28;20224;-83
2022/11/26 01:33:58;;;;;;;13.07;8.23;;;;;;;11.38;63.27;99821.03;7014866;28;20236;-84
2022/11/26 01:46:06;;;;;;;13.53;7.90;;;;;;;11.39;63.30;99830.84;6943274;28;20339;-83
2022/11/26 01:50:21;;;;;;;19.60;8.37;;;;;;;11.42;63.44;99841.25;7005337;28;20353;-83
2022/11/26 01:53:48;;;;;;;10.90;6.67;;;;;;;11.82;61.97;99838.13;6902228;28;20232;-83
2022/11/26 01:57:13;;;;;;;11.97;8.10;;;;;;;11.42;63.00;99849.34;6945380;28;20315;-83
2022/11/26 02:00:36;;;;;;;14.33;7.53;;;;;;;11.67;62.78;99853.47;7014583;28;20190;-83
2022/11/26 02:04:12;;;;;;;10.47;6.77;;;;;;;11.02;62.72;99771.50;7001090;28;20214;-84
2022/11/26 02:07:34;;;;;;;12.87;7.10;;;;;;;11.81;62.18;99842.66;6987536;28;20222;-84
2022/11/26 02:19:13;;;;;;;13.83;6.80;;;;;;;11.67;61.94;99834.56;6891105;28;20226;-85
2022/11/26 02:23:48;;;;;;;16.83;7.13;;;;;;;11.63;62.25;99842.22;6985620;28;20222;-83
2022/11/26 02:27:38;;;;;;;11.23;7.00;;;;;;;11.72;62.18;99848.38;6904098;28;20593;-83
2022/11/26 02:31:06;;;;;;;11.63;6.30;;;;;;;11.71;62.25;99871.00;6941209;28;20270;-83
2022/11/26 02:34:35;;;;;;;11.90;7.03;;;;;;;11.59;62.01;99840.94;6986026;28;20213;-83
2022/11/26 02:38:00;;;;;;;14.83;7.47;;;;;;;11.52;62.46;99861.56;6985077;28;20268;-83
2022/11/26 02:41:21;;;;;;;10.03;6.90;;;;;;;11.62;62.98;99885.66;6986413;28;20300;-83
2022/11/26 02:44:45;;;;;;;13.30;7.57;;;;;;;11.42;63.18;99888.00;6986690;28;20216;-83
2022/11/26 02:48:10;;;;;;;13.23;6.50;;;;;;;11.28;63.41;99880.72;6985240;28;20233;-83
2022/11/26 02:51:33;;;;;;;11.73;7.13;;;;;;;11.30;64.02;99889.47;6986221;28;20752;-83
2022/11/26 02:54:55;;;;;;;14.73;6.73;;;;;;;11.31;63.26;99863.31;6983867;28;20236;-83
2022/11/26 02:58:17;;;;;;;14.13;7.27;;;;;;;11.41;63.49;99896.28;6985554;28;20225;-83
2022/11/26 03:01:44;;;;;;;13.00;7.10;;;;;;;11.34;64.10;99914.25;6985709;28;20967;-84
2022/11/26 03:05:08;;;;;;;14.27;7.13;;;;;;;11.02;63.54;99830.84;6986495;28;20221;-84
2022/11/26 03:08:31;;;;;;;14.23;8.07;;;;;;;11.33;64.15;99926.91;6985292;28;20606;-84
2022/11/26 03:11:53;;;;;;;10.70;7.10;;;;;;;11.51;62.84;99861.75;6987070;28;20848;-85
2022/11/26 03:15:15;;;;;;;13.97;6.80;;;;;;;11.50;62.58;99897.88;6985380;28;20228;-84
2022/11/26 03:18:37;;;;;;;12.87;7.27;;;;;;;11.62;62.91;99927.00;6987049;28;20225;-85
2022/11/26 03:22:00;;;;;;;14.30;7.23;;;;;;;11.54;63.31;99931.59;6985754;28;20320;-84
2022/11/26 03:25:22;;;;;;;10.50;6.83;;;;;;;11.60;62.95;99922.78;6985213;28;20210;-84
2022/11/26 03:28:51;;;;;;;13.03;7.27;;;;;;;11.79;62.32;99906.03;6985885;28;20226;-84
2022/11/26 03:32:13;;;;;;;10.93;7.30;;;;;;;11.52;62.92;99922.84;6985564;28;20208;-83
2022/11/26 03:35:35;;;;;;;10.70;7.10;;;;;;;11.38;63.59;99915.53;6984973;28;20233;-83
2022/11/26 03:38:58;;;;;;;13.20;6.73;;;;;;;11.64;63.49;99934.91;6985163;28;20257;-86
2022/11/26 03:42:19;;;;;;;10.87;7.00;;;;;;;11.71;62.96;99925.91;6985120;28;20220;-84
2022/11/26 03:45:41;;;;;;;11.43;6.17;;;;;;;11.69;63.02;99944.13;6984496;28;20205;-84
2022/11/26 03:52:39;;;;;;;15.93;6.57;;;;;;;11.45;62.43;99893.03;6982993;28;20221;-83
2022/11/26 03:56:15;;;;;;;7.70;5.73;;;;;;;11.90;62.52;99938.00;6984533;28;20640;-84
2022/11/26 03:59:37;;;;;;;12.27;6.00;;;;;;;12.02;61.74;99950.88;6985130;28;20541;-83
2022/11/26 04:02:59;;;;;;;9.93;6.00;;;;;;;11.93;61.91;99933.06;6984849;28;20220;-84
2022/11/26 04:06:21;;;;;;;9.00;5.23;;;;;;;12.06;61.41;99941.38;7010469;28;20220;-84
2022/11/26 04:09:43;;;;;;;8.13;5.03;;;;;;;12.28;61.25;99950.41;7015856;28;20291;-84
2022/11/26 04:13:06;;;;;;;9.30;5.37;;;;;;;12.08;60.81;99941.16;7016239;28;20209;-84
2022/11/26 04:16:28;;;;;;;8.73;6.50;;;;;;;12.11;61.52;99957.84;7014841;28;20225;-84
2022/11/26 04:19:49;;;;;;;11.07;5.87;;;;;;;11.82;61.76;99932.69;7015614;28;20209;-84
2022/11/26 04:23:11;;;;;;;15.53;8.07;;;;;;;11.82;62.13;99952.47;7014857;28;20303;-83
2022/11/26 04:26:45;;;;;;;9.07;6.33;;;;;;;11.90;61.93;99957.78;7013546;28;20240;-84
2022/11/26 04:30:35;;;;;;;11.63;6.60;;;;;;;11.59;63.00;99967.03;7014971;28;20206;-83
2022/11/26 04:33:57;;;;;;;10.20;7.00;;;;;;;11.27;64.12;99943.00;7011748;28;20228;-84
2022/11/26 04:37:19;;;;;;;14.07;7.67;;;;;;;11.96;62.45;99950.75;7015679;28;20608;-84
2022/11/26 04:40:41;;;;;;;9.73;5.97;;;;;;;11.91;62.07;99959.44;7016582;28;20220;-84
2022/11/26 04:44:02;;;;;;;9.37;5.47;;;;;;;11.96;61.63;99951.63;7014982;28;20208;-84
2022/11/26 04:47:26;;;;;;;11.63;5.13;;;;;;;11.88;61.63;99943.63;7012255;28;20619;-83
2022/11/26 04:50:48;;;;;;;10.07;4.70;;;;;;;11.72;61.39;99915.91;7011013;28;20190;-83
2022/11/26 04:54:10;;;;;;;6.87;4.53;;;;;;;11.95;61.24;99954.50;7010893;28;20279;-83
2022/11/26 04:57:32;;;;;;;9.20;4.77;;;;;;;12.01;61.36;99967.28;7009748;28;20289;-83
2022/11/26 05:00:54;;;;;;;10.17;5.20;;;;;;;12.10;61.23;99974.28;7009769;28;20266;-83
2022/11/26 05:04:16;;;;;;;9.77;5.37;;;;;;;11.54;61.49;99893.78;7009918;28;20248;-85
2022/11/26 05:07:39;;;;;;;7.33;4.67;;;;;;;12.02;61.10;99963.53;7003868;28;20313;-86
2022/11/26 05:11:19;;;;;;;;;;;;;;;;;;;;;
2022/11/26 05:14:56;;;;;;;8.23;5.13;;;;;;;11.91;61.84;99964.00;7013420;28;20257;-84
2022/11/26 05:18:23;;;;;;;10.10;5.40;;;;;;;11.40;61.81;99910.81;7013785;28;20238;-84
2022/11/26 05:21:46;;;;;;;13.47;6.17;;;;;;;11.48;62.47;99989.03;7012940;28;20205;-83
2022/11/26 05:25:09;;;;;;;9.57;5.47;;;;;;;11.54;62.98;99991.03;7011779;28;20201;-85
2022/11/26 05:28:31;;;;;;;12.70;6.77;;;;;;;11.69;62.61;99981.94;7014994;28;20230;-83
2022/11/26 05:32:01;;;;;;;5.83;4.90;;;;;;;11.58;61.29;99930.22;7015017;28;20208;-86
2022/11/26 05:40:10;;;;;;;13.90;6.97;;;;;;;11.92;61.43;99992.72;6972513;28;20223;-83
2022/11/26 05:43:32;;;;;;;10.43;6.33;;;;;;;11.86;61.31;100005.09;7015027;28;20211;-82
2022/11/26 05:47:22;;;;;;;12.30;7.17;;;;;;;11.77;61.50;100006.22;7014347;28;20252;-83
2022/11/26 05:51:03;;;;;;;8.77;6.27;;;;;;;11.88;61.60;100008.47;7009432;28;20208;-83
2022/11/26 05:54:58;;;;;;;11.13;6.70;;;;;;;11.32;62.56;100006.22;7012187;28;20315;-83
2022/11/26 05:58:32;;;;;;;13.43;6.37;;;;;;;11.28;64.20;100022.97;7015508;28;20231;-83
2022/11/26 06:06:58;;;;;;;17.33;6.87;;;;;;;11.50;62.79;100024.81;6923830;28;20197;-83
2022/11/26 06:10:22;;;;;;;13.93;6.93;;;;;;;11.73;62.29;100009.44;6929557;28;20259;-84
2022/11/26 06:21:29;;;;;;;12.57;7.83;;;;;;;11.91;61.82;100020.75;6818395;29;20241;-84
2022/11/26 06:24:51;;;;;;;21.83;10.93;;;;;;;11.72;61.91;99992.41;6810139;29;20322;-83
2022/11/26 06:28:22;;;;;;;16.70;8.03;;;;;;;11.66;62.88;100035.50;6794750;29;20282;-84
2022/11/26 06:31:48;;;;;;;12.97;7.40;;;;;;;11.55;62.22;99981.88;6794455;29;20326;-84
2022/11/26 06:35:10;;;;;;;12.77;7.87;;;;;;;11.88;61.59;100015.72;6813985;29;20754;-83
2022/11/26 06:38:32;;;;;;;18.67;9.00;;;;;;;11.63;62.56;100027.78;6832515;28;20387;-83
2022/11/26 06:41:54;;;;;;;12.97;8.63;;;;;;;11.67;62.72;100042.59;6901355;28;20216;-83
2022/11/26 06:45:16;;;;;;;14.00;8.37;;;;;;;11.77;62.68;100032.38;6900086;28;20207;-83
2022/11/26 06:48:40;;;;;;;14.57;8.33;;;;;;;12.02;62.39;100056.28;6899857;28;20234;-83
2022/11/26 06:52:02;;;;;;;13.87;9.07;;;;;;;12.05;62.15;100061.31;6899534;28;20196;-83
2022/11/26 06:55:24;;;;;;;14.03;9.10;;;;;;;12.02;62.05;100068.97;6987246;28;20232;-85
2022/11/26 06:58:46;;;;;;;12.43;7.93;;;;;;;11.98;62.19;100067.66;7014230;28;20233;-85
2022/11/26 07:02:09;;;;;;;10.10;7.17;;;;;;;12.17;61.89;100070.66;7014280;28;20235;-85
2022/11/26 07:05:38;;;;;;;14.47;8.53;;;;;;;12.09;61.78;100070.75;7018401;28;20220;-84
2022/11/26 07:09:04;;;;;;;16.77;8.90;;;;;;;11.63;63.01;100069.13;7018020;28;20217;-83
2022/11/26 07:12:26;;;;;;;19.27;9.43;;;;;;;11.83;62.29;100047.84;7011485;28;20576;-83
2022/11/26 07:15:49;;;;;;;15.47;9.77;;;;;;;11.92;62.35;100063.00;7010795;28;20221;-83
2022/11/26 07:19:12;;;;;;;16.23;9.37;;;;;;;11.93;62.59;100099.81;7007764;28;20295;-84
2022/11/26 07:22:35;;;;;;;14.40;10.27;;;;;;;12.00;62.72;100108.84;7005789;28;20205;-84
2022/11/26 07:25:58;;;;;;;18.17;11.07;;;;;;;11.90;63.16;100121.78;6979060;28;20197;-84
2022/11/26 07:29:20;;;;;;;16.00;10.37;;;;;;;11.31;64.38;100122.50;7001392;28;20212;-83
2022/11/26 07:32:41;;;;;;;17.73;9.20;;;;;;;11.70;63.68;100129.53;6998889;28;20206;-82
2022/11/26 07:36:06;;;;;;;17.17;10.10;;;;;;;12.02;62.57;100106.81;6981840;28;20248;-83
2022/11/26 07:39:29;;;;;;;13.90;9.63;;;;;;;12.29;61.99;100128.69;6992502;28;20210;-84
2022/11/26 07:42:50;;;;;;;16.47;10.07;;;;;;;12.04;62.05;100126.41;7015153;28;20669;-88
2022/11/26 07:46:17;;;;;;;15.67;9.63;;;;;;;12.11;61.78;100108.41;7014532;28;20201;-85
2022/11/26 07:49:39;;;;;;;16.40;11.57;;;;;;;12.41;61.58;100153.41;7014186;28;20198;-84
2022/11/26 07:53:00;;;;;;;19.67;11.97;;;;;;;12.44;61.54;100164.72;7014250;28;20190;-83
2022/11/26 07:56:23;;;;;;;17.87;10.80;;;;;;;12.36;61.41;100172.91;7014883;28;20236;-85
2022/11/26 07:59:45;;;;;;;16.30;11.90;;;;;;;12.17;62.26;100167.16;7014962;28;20190;-82
2022/11/26 08:03:13;;;;;;;13.80;10.20;;;;;;;11.97;63.06;100157.84;7016859;28;20231;-83
2022/11/26 08:06:36;;;;;;;16.10;10.07;;;;;;;12.08;62.93;100161.00;6988565;28;20228;-84
2022/11/26 08:09:57;;;;;;;17.37;10.80;;;;;;;12.14;63.35;100170.22;7014393;28;20216;-83
2022/11/26 08:13:20;;;;;;;16.70;11.23;;;;;;;12.17;62.93;100156.34;7014918;28;20210;-85
2022/11/26 08:16:43;;;;;;;15.93;11.07;;;;;;;11.94;63.14;100115.00;7009222;28;20226;-84
2022/11/26 08:20:06;;;;;;;18.47;11.43;;;;;;;12.18;63.18;100148.06;7011185;28;20197;-84
2022/11/26 08:23:29;;;;;;;21.87;12.83;;;;;;;12.20;63.21;100148.72;7006870;28;20197;-82
2022/11/26 08:26:51;;;;;;;18.40;12.70;;;;;;;12.38;63.45;100181.69;6994951;28;20732;-83
2022/11/26 08:30:14;;;;;;;21.90;13.07;;;;;;;12.25;63.30;100184.16;7006485;28;20206;-83
2022/11/26 08:33:36;;;;;;;17.47;12.20;;;;;;;12.06;63.90;100175.72;6998498;28;20683;-83
2022/11/26 08:36:58;;;;;;;22.90;13.23;;;;;;;12.27;63.31;100175.88;6987824;28;20248;-83
2022/11/26 08:40:20;;;;;;;18.33;12.63;;;;;;;12.50;62.93;100176.66;7010099;28;20196;-83
2022/11/26 08:43:41;;;;;;;22.53;13.90;;;;;;;12.52;62.81;100188.16;7009703;28;20239;-83
2022/11/26 08:47:04;;;;;;;24.03;12.27;;;;;;;12.69;62.39;100195.09;7007803;28;20244;-83
2022/11/26 08:50:26;;;;;;;20.77;13.30;;;;;;;12.70;62.29;100180.53;7009321;28;20209;-83
2022/11/26 08:53:47;;;;;;;18.93;13.63;;;;;;;12.72;62.33;100203.66;7008765;28;20239;-84
2022/11/26 08:57:09;;;;;;;17.10;12.83;;;;;;;12.63;62.44;100195.81;6996775;28;20267;-83
2022/11/26 09:00:30;;;;;;;24.70;13.77;;;;;;;12.76;62.04;100204.13;7009476;28;20225;-83
2022/11/26 09:03:54;;;;;;;21.63;11.93;;;;;;;12.81;62.03;100183.59;7008451;28;20226;-83
2022/11/26 09:07:16;;;;;;;16.30;10.43;;;;;;;13.07;61.44;100192.16;7008727;28;20827;-83
2022/11/26 09:10:38;;;;;;;17.67;11.40;;;;;;;12.94;61.56;100200.06;7016017;28;20202;-83
2022/11/26 09:13:59;;;;;;;23.70;11.30;;;;;;;13.03;61.51;100217.03;7022226;28;20205;-83
2022/11/26 09:17:21;;;;;;;17.83;9.97;;;;;;;13.46;60.31;100214.31;7007741;28;20775;-83
2022/11/26 09:20:43;;;;;;;16.30;9.30;;;;;;;13.57;59.58;100199.47;7007074;28;20299;-83
2022/11/26 09:24:06;;;;;;;19.33;11.27;;;;;;;13.30;59.71;100195.59;7007826;28;20261;-83
2022/11/26 09:27:27;;;;;;;19.40;10.87;;;;;;;13.36;60.90;100196.69;7006564;28;20225;-83
2022/11/26 09:30:49;;;;;;;23.43;11.17;;;;;;;13.63;60.00;100177.00;7006294;28;20229;-83
2022/11/26 09:34:11;;;;;;;13.23;10.13;;;;;;;13.90;59.59;100177.09;7006013;28;20202;-83
2022/11/26 09:37:33;;;;;;;18.37;10.23;;;;;;;14.39;58.24;100164.44;7004195;28;20256;-84
2022/11/26 09:41:00;;;;;;;12.00;9.40;;;;;;;14.52;56.38;100158.28;7007265;28;20222;-83
2022/11/26 09:44:32;;;;;;;17.13;10.83;;;;;;;14.55;56.67;100174.16;7007462;28;20198;-83
2022/11/26 09:47:54;;;;;;;10.17;6.87;;;;;;;14.44;56.92;100134.84;6986049;28;20231;-83
2022/11/26 09:51:19;;;;;;;13.57;6.17;;;;;;;15.11;54.99;100192.91;7003684;28;20203;-83
2022/11/26 09:54:42;;;;;;;8.77;4.83;;;;;;;15.25;53.87;100147.63;6993719;28;20243;-81
2022/11/26 09:58:11;;;;;;;6.80;4.37;;;;;;;15.42;53.34;100165.31;7006463;28;20295;-81
2022/11/26 10:01:33;;;;;;;8.17;5.03;;;;;;;15.39;53.31;100187.47;7006462;28;20253;-81
2022/11/26 10:04:54;;;;;;;10.27;4.60;;;;;;;15.03;53.59;100184.09;7004004;28;20201;-81
2022/11/26 10:08:26;;;;;;;12.43;5.20;;;;;;;14.70;54.51;100188.47;7005794;28;20253;-82
2022/11/26 10:11:55;;;;;;;13.90;5.30;;;;;;;14.78;54.42;100172.03;7016212;28;20247;-84
2022/11/26 10:15:18;;;;;;;9.03;5.57;;;;;;;14.61;54.86;100174.22;7008625;28;20302;-83
2022/11/26 10:18:43;;;;;;;10.40;5.40;;;;;;;14.60;55.20;100177.97;7005027;28;20267;-81
2022/11/26 10:22:12;;;;;;;8.93;5.00;;;;;;;14.51;54.79;100181.84;7004136;28;20238;-81
2022/11/26 10:25:40;;;;;;;17.67;7.97;;;;;;;13.49;58.66;100177.88;7003170;28;20201;-81
2022/11/26 10:29:18;;;;;;;15.47;7.20;;;;;;;13.42;58.79;100158.00;7000330;28;20255;-83
2022/11/26 10:32:45;;;;;;;14.17;4.83;;;;;;;14.56;55.36;100186.69;7004064;28;20245;-80
2022/11/26 10:36:09;;;;;;;13.03;5.00;;;;;;;14.95;53.23;100192.41;7003443;28;20319;-82
2022/11/26 10:39:31;;;;;;;12.23;5.00;;;;;;;14.95;53.38;100190.53;6990127;28;20233;-80
2022/11/26 10:43:00;;;;;;;12.47;5.50;;;;;;;14.87;53.25;100187.97;6989342;28;20589;-80
2022/11/26 10:46:36;;;;;;;9.40;4.33;;;;;;;14.63;52.67;100177.56;7003645;28;20225;-80
2022/11/26 10:50:22;;;;;;;10.70;4.80;;;;;;;14.85;53.35;100167.47;7004327;28;20227;-80
2022/11/26 10:53:51;;;;;;;12.20;4.20;;;;;;;15.18;52.36;100174.78;7003554;28;20625;-83
2022/11/26 10:57:15;;;;;;;10.00;3.80;;;;;;;15.30;50.60;100167.75;7003133;28;20674;-80
2022/11/26 11:00:39;;;;;;;10.60;4.10;;;;;;;15.24;51.02;100159.56;7004398;28;20351;-80
2022/11/26 11:04:02;;;;;;;10.87;4.63;;;;;;;15.27;51.64;100183.63;7003774;28;20231;-81
2022/11/26 11:07:40;;;;;;;8.90;5.53;;;;;;;14.77;52.43;100173.91;7004248;28;20227;-80
2022/11/26 11:11:03;;;;;;;19.87;6.47;;;;;;;14.58;54.55;100182.75;7005341;28;20198;-81
2022/11/26 11:14:28;;;;;;;9.80;5.87;;;;;;;14.40;54.38;100154.44;7009171;28;20289;-80
2022/11/26 11:17:55;;;;;;;8.17;4.43;;;;;;;14.66;53.78;100171.75;7028572;28;20598;-78
2022/11/26 11:21:19;;;;;;;12.10;5.97;;;;;;;14.67;52.51;100167.16;7019691;28;20201;-81
2022/11/26 11:24:45;;;;;;;15.77;7.47;;;;;;;14.55;53.46;100168.72;7014680;28;20208;-81
2022/11/26 11:28:15;;;;;;;13.00;5.70;;;;;;;14.31;54.05;100170.00;7020084;28;20217;-81
2022/11/26 11:31:45;;;;;;;13.93;5.07;;;;;;;13.48;55.16;100165.34;7004059;28;20223;-80
2022/11/26 11:35:21;;;;;;;14.27;5.67;;;;;;;14.02;53.82;100161.13;7000442;28;20231;-79
2022/11/26 11:38:49;;;;;;;10.20;5.63;;;;;;;14.07;54.20;100151.41;7000311;28;20213;-79
2022/11/26 11:42:19;;;;;;;9.27;5.30;;;;;;;14.23;53.49;100151.13;6996970;28;20229;-77
2022/11/26 11:45:42;;;;;;;10.70;5.30;;;;;;;14.76;52.12;100153.22;7006475;28;20193;-78
2022/11/26 11:49:13;;;;;;;12.93;4.77;;;;;;;14.21;52.99;100158.66;7006453;28;20257;-78
2022/11/26 11:52:39;;;;;;;8.90;5.00;;;;;;;14.29;52.31;100136.78;6999715;28;20292;-78
2022/11/26 11:56:25;;;;;;;13.43;5.40;;;;;;;14.58;52.13;100143.91;6984385;28;20241;-78
2022/11/26 12:00:12;;;;;;;8.57;4.10;;;;;;;14.53;51.98;100122.81;7001694;28;20201;-78
2022/11/26 12:03:51;;;;;;;10.57;4.83;;;;;;;14.86;51.49;100120.28;7005798;28;20225;-77
2022/11/26 12:07:39;;;;;;;7.17;4.33;;;;;;;14.76;51.33;100139.63;7005895;28;20225;-78
2022/11/26 12:11:11;;;;;;;12.40;4.60;;;;;;;14.92;50.67;100143.94;7006245;28;20338;-78
2022/11/26 12:14:38;;;;;;;8.63;4.70;;;;;;;15.05;49.87;100101.34;7005589;28;20241;-78
2022/11/26 12:18:04;;;;;;;11.93;5.17;;;;;;;14.38;50.69;100134.78;7005307;28;20905;-78
2022/11/26 12:21:30;;;;;;;10.37;4.60;;;;;;;15.28;50.24;100130.94;7006268;28;20190;-78
2022/11/26 12:24:57;;;;;;;11.50;4.20;;;;;;;15.54;48.48;100125.63;7004295;28;20237;-78
2022/11/26 12:28:22;;;;;;;10.93;4.93;;;;;;;15.82;48.59;100131.75;7004744;28;20214;-78
2022/11/26 12:31:48;;;;;;;9.80;5.40;;;;;;;15.79;48.77;100132.16;7004955;28;20267;-78
2022/11/26 12:35:12;;;;;;;12.50;4.60;;;;;;;16.28;47.08;100129.91;7006271;28;21139;-78
2022/11/26 12:38:37;;;;;;;10.57;5.20;;;;;;;16.48;46.58;100111.72;6984679;28;20370;-78
2022/11/26 12:42:02;;;;;;;11.33;4.60;;;;;;;16.05;47.59;100110.44;6999514;28;20194;-79
2022/11/26 12:45:34;;;;;;;12.20;4.70;;;;;;;16.13;47.40;100132.00;7005287;28;20194;-77
2022/11/26 12:49:03;;;;;;;9.53;4.10;;;;;;;16.32;46.45;100117.53;7005569;28;20221;-78
2022/11/26 12:52:31;;;;;;;7.97;3.93;;;;;;;17.07;45.72;100121.44;7004341;28;20249;-79
2022/11/26 12:55:55;;;;;;;8.50;4.50;;;;;;;16.72;46.34;100120.06;7007060;28;20642;-80
2022/11/26 12:59:20;;;;;;;9.23;4.30;;;;;;;16.67;45.36;100106.25;7006040;28;20278;-78
2022/11/26 13:02:44;;;;;;;11.07;4.50;;;;;;;16.81;45.42;100105.16;6989121;28;20278;-80
2022/11/26 13:06:14;;;;;;;7.70;4.43;;;;;;;16.82;46.00;100116.91;6976923;28;20206;-79
2022/11/26 13:09:48;;;;;;;10.30;5.00;;;;;;;16.20;47.55;100122.78;6977997;28;20248;-79
2022/11/26 13:13:17;;;;;;;8.77;4.80;;;;;;;16.42;47.39;100090.78;6977733;28;20776;-79
2022/11/26 13:16:42;;;;;;;11.20;4.10;;;;;;;16.52;46.13;100097.47;6977101;28;20284;-79
2022/11/26 13:20:09;;;;;;;10.77;4.27;;;;;;;16.44;46.43;100094.13;6977942;28;20187;-79
2022/11/26 13:23:43;;;;;;;8.37;4.67;;;;;;;16.37;46.04;100079.66;6977379;28;20203;-79
2022/11/26 13:27:16;;;;;;;12.10;5.27;;;;;;;16.46;46.71;100108.38;6977388;28;20313;-79
2022/11/26 13:30:47;;;;;;;9.87;3.93;;;;;;;16.52;45.81;100105.63;6977138;28;20637;-79
2022/11/26 13:34:36;;;;;;;11.93;4.90;;;;;;;16.41;46.68;100089.97;6976720;28;20663;-79
2022/11/26 13:38:12;;;;;;;6.97;3.70;;;;;;;16.47;46.22;100080.94;6975156;28;20321;-79
2022/11/26 13:41:58;;;;;;;12.03;4.60;;;;;;;16.42;46.83;100105.25;7002809;28;20190;-79
2022/11/26 13:45:30;;;;;;;9.00;4.40;;;;;;;16.40;46.84;100099.16;7003409;28;20277;-79
2022/11/26 13:48:56;;;;;;;9.07;4.53;;;;;;;16.27;47.37;100101.03;7003982;28;20267;-79
2022/11/26 13:52:21;;;;;;;13.87;5.80;;;;;;;16.09;47.89;100095.34;7002614;28;20580;-78
2022/11/26 13:55:45;;;;;;;15.10;5.63;;;;;;;15.94;47.99;100081.13;7002999;28;20296;-79
2022/11/26 13:59:14;;;;;;;13.83;6.43;;;;;;;15.71;49.11;100094.28;7002862;28;20316;-79
2022/11/26 14:02:46;;;;;;;7.80;4.10;;;;;;;15.68;49.55;100086.56;7003349;28;20630;-79
2022/11/26 14:06:08;;;;;;;13.47;4.97;;;;;;;15.75;49.42;100101.81;7003034;28;20231;-81
2022/11/26 14:09:47;;;;;;;11.83;5.03;;;;;;;15.59;49.28;100109.53;7004416;28;20207;-80
2022/11/26 14:13:14;;;;;;;9.47;4.80;;;;;;;15.18;50.60;100108.75;7004293;28;20290;-81
2022/11/26 14:17:13;;;;;;;11.57;4.70;;;;;;;15.12;50.41;100109.53;7005954;28;20241;-80
2022/11/26 14:21:11;;;;;;;13.30;5.00;;;;;;;15.02;51.05;100106.34;7009874;28;20244;-81
2022/11/26 14:24:54;;;;;;;13.47;6.60;;;;;;;14.77;51.40;100114.19;6984969;28;20194;-82
2022/11/26 14:28:16;;;;;;;12.77;7.17;;;;;;;14.66;51.43;100119.31;6996143;28;20217;-81
2022/11/26 14:31:39;;;;;;;12.73;7.77;;;;;;;13.47;55.28;100091.38;7003407;28;20282;-81
2022/11/26 14:35:02;;;;;;;12.83;7.13;;;;;;;13.99;54.41;100112.72;6990777;28;20233;-81
2022/11/26 14:38:27;;;;;;;10.00;6.70;;;;;;;14.12;53.86;100104.69;7003847;28;20315;-80
2022/11/26 14:41:53;;;;;;;16.90;6.70;;;;;;;13.73;54.04;100120.59;6984508;28;20206;-81
2022/11/26 14:45:17;;;;;;;11.07;5.43;;;;;;;13.83;54.14;100102.16;7000919;28;20233;-81
2022/11/26 14:48:42;;;;;;;9.73;4.87;;;;;;;13.62;54.39;100118.44;6992231;28;20229;-80
2022/11/26 14:52:15;;;;;;;12.10;5.60;;;;;;;13.79;54.63;100103.56;6989320;28;20208;-81
2022/11/26 14:55:37;;;;;;;14.83;5.83;;;;;;;13.46;55.26;100124.06;7002081;28;20244;-81
2022/11/26 14:59:54;;;;;;;12.87;8.83;;;;;;;13.51;54.97;100108.91;6990675;28;20254;-81
2022/11/26 15:03:22;;;;;;;24.30;12.27;;;;;;;12.90;57.13;100132.91;7003453;28;20259;-80
2022/11/26 15:06:44;;;;;;;18.33;10.57;;;;;;;12.74;57.30;100120.41;6999706;28;20240;-82
2022/11/26 15:10:18;;;;;;;14.17;9.97;;;;;;;13.01;57.04;100129.75;6995724;28;20202;-83
2022/11/26 15:13:41;;;;;;;18.33;12.90;;;;;;;13.04;57.05;100141.06;6997219;28;20201;-83
2022/11/26 15:17:03;;;;;;;16.83;10.40;;;;;;;12.98;56.14;100122.84;6984742;28;20264;-82
2022/11/26 15:20:25;;;;;;;21.23;12.30;;;;;;;12.87;56.54;100142.25;6975708;28;20300;-82
2022/11/26 15:23:46;;;;;;;24.80;13.50;;;;;;;12.78;56.53;100143.38;6977582;28;20328;-82
2022/11/26 15:27:28;;;;;;;16.53;11.53;;;;;;;12.18;58.27;100152.63;6975114;28;20309;-82
2022/11/26 15:30:55;;;;;;;18.93;11.53;;;;;;;11.69;59.40;100137.84;6976414;28;20247;-82
2022/11/26 15:34:17;;;;;;;23.00;11.50;;;;;;;11.01;61.78;100120.66;6977712;28;20238;-82
2022/11/26 15:37:39;;;;;;;20.47;10.37;;;;;;;11.94;59.92;100145.56;6983354;28;20238;-84
2022/11/26 15:41:08;;;;;;;19.60;12.33;;;;;;;11.99;58.29;100134.22;6982595;28;20240;-82
2022/11/26 15:44:32;;;;;;;24.37;11.93;;;;;;;12.01;58.50;100142.97;6991973;28;20243;-82
2022/11/26 15:47:54;;;;;;;14.93;10.87;;;;;;;11.40;60.01;100137.66;7002998;28;20260;-82
2022/11/26 15:51:22;;;;;;;15.47;9.00;;;;;;;11.63;59.18;100115.06;7008509;28;20237;-82
2022/11/26 15:54:51;;;;;;;14.43;8.93;;;;;;;12.02;57.98;100131.97;7002383;28;20202;-82
2022/11/26 15:58:19;;;;;;;19.17;11.80;;;;;;;11.34;58.00;100049.25;7003347;28;20236;-82
2022/11/26 16:01:44;;;;;;;19.90;10.10;;;;;;;11.32;58.06;100099.88;7006359;28;20223;-82
2022/11/26 16:05:22;;;;;;;16.63;9.53;;;;;;;11.02;59.69;100125.00;6978740;28;20212;-82
2022/11/26 16:08:58;;;;;;;19.57;11.43;;;;;;;11.17;59.16;100120.56;6980443;28;20659;-82
2022/11/26 16:12:31;;;;;;;29.37;16.17;;;;;;;11.24;58.86;100108.03;6987076;28;20218;-82
2022/11/26 16:15:57;;;;;;;13.47;9.10;;;;;;;11.14;58.71;100127.16;6979811;28;20212;-82
2022/11/26 16:19:21;;;;;;;19.57;12.30;;;;;;;11.00;59.15;100119.81;6979170;28;20218;-82
2022/11/26 16:22:45;;;;;;;16.67;11.07;;;;;;;11.15;58.32;100131.53;6979746;28;20210;-82
2022/11/26 16:26:12;;;;;;;18.83;12.73;;;;;;;11.04;58.52;100114.91;6979751;28;20283;-82
2022/11/26 16:29:35;;;;;;;15.90;10.80;;;;;;;11.15;57.92;100106.41;6979468;28;20191;-82
2022/11/26 16:32:57;;;;;;;14.00;10.00;;;;;;;10.85;57.89;100088.31;6980499;28;20208;-82
2022/11/26 16:36:25;;;;;;;21.00;10.20;;;;;;;10.40;59.30;100110.56;7004825;28;20235;-82
2022/11/26 16:39:47;;;;;;;22.53;11.20;;;;;;;9.99;60.08;100117.00;7005028;28;20194;-82
2022/11/26 16:43:08;;;;;;;19.13;12.97;;;;;;;9.67;60.97;100119.72;6999593;28;20328;-82
2022/11/26 16:46:30;;;;;;;19.53;10.80;;;;;;;10.00;59.83;100091.78;7004543;28;20309;-82
2022/11/26 16:49:52;;;;;;;14.10;10.40;;;;;;;9.82;60.49;100126.13;7003986;28;20212;-82